createdAt,value
2022-12-11T00:01:22.869Z,15.43
2022-12-11T00:03:55.012Z,11.87
2022-12-11T00:06:25.168Z,13.70
2022-12-11T00:08:54.824Z,12.67
2022-12-11T00:11:24.242Z,13.07
2022-12-11T00:13:55.552Z,14.90
2022-12-11T00:16:27.118Z,11.80
2022-12-11T00:18:54.656Z,10.67
2022-12-11T00:21:24.408Z,11.87
2022-12-11T00:23:55.893Z,12.87
2022-12-11T00:26:41.746Z,15.70
2022-12-11T00:29:27.531Z,15.97
2022-12-11T00:31:55.735Z,15.77
2022-12-11T00:34:24.736Z,16.87
2022-12-11T00:36:58.418Z,13.83
2022-12-11T00:39:27.762Z,16.30
2022-12-11T00:41:57.679Z,15.40
2022-12-11T00:44:26.783Z,15.10
2022-12-11T00:46:57.248Z,15.50
2022-12-11T00:49:27.115Z,19.33
2022-12-11T00:51:56.816Z,16.23
2022-12-11T00:54:26.919Z,18.40
2022-12-11T00:56:56.796Z,19.57
2022-12-11T00:59:27.887Z,18.40
2022-12-11T01:01:56.682Z,18.00
2022-12-11T01:04:29.456Z,19.27
2022-12-11T01:06:59.422Z,23.10
2022-12-11T01:10:00.941Z,20.77
2022-12-11T01:12:30.925Z,19.90
2022-12-11T01:14:57.186Z,22.97
2022-12-11T01:17:23.256Z,19.57
2022-12-11T01:19:49.302Z,17.87
2022-12-11T01:22:19.125Z,17.93
2022-12-11T01:24:45.157Z,17.90
2022-12-11T01:27:11.286Z,17.00
2022-12-11T01:29:37.321Z,19.37
2022-12-11T01:32:06.067Z,18.80
2022-12-11T01:34:33.523Z,14.50
2022-12-11T01:37:04.234Z,18.20
2022-12-11T01:39:33.441Z,15.03
2022-12-11T01:42:03.648Z,16.67
2022-12-11T01:44:33.194Z,15.10
2022-12-11T01:47:02.543Z,15.50
2022-12-11T01:49:36.404Z,16.47
2022-12-11T01:52:09.462Z,14.83
2022-12-11T01:54:35.765Z,14.57
2022-12-11T01:57:08.403Z,15.20
2022-12-11T01:59:42.940Z,16.50
2022-12-11T02:02:26.347Z,16.63
2022-12-11T02:12:42.670Z,17.03
2022-12-11T02:15:29.856Z,13.83
2022-12-11T02:18:05.928Z,12.43
2022-12-11T02:20:42.083Z,14.80
2022-12-11T02:23:14.497Z,11.77
2022-12-11T02:26:11.867Z,11.30
2022-12-11T02:28:47.043Z,11.23
2022-12-11T02:31:23.362Z,10.70
2022-12-11T02:33:55.219Z,11.23
2022-12-11T02:36:24.504Z,10.13
2022-12-11T02:38:52.305Z,8.97
2022-12-11T02:41:26.724Z,9.20
2022-12-11T02:43:54.851Z,8.30
2022-12-11T02:46:21.464Z,9.40
2022-12-11T02:48:49.781Z,9.10
2022-12-11T02:51:28.017Z,9.73
2022-12-11T02:53:56.541Z,9.37
2022-12-11T02:56:32.294Z,8.97
2022-12-11T02:59:19.259Z,7.97
2022-12-11T03:01:46.130Z,8.43
2022-12-11T03:04:12.380Z,10.13
2022-12-11T03:06:51.098Z,8.93
2022-12-11T03:09:18.495Z,7.50
2022-12-11T03:11:44.511Z,10.07
2022-12-11T03:14:10.841Z,7.67
2022-12-11T03:16:56.221Z,8.50
2022-12-11T03:19:29.528Z,11.03
2022-12-11T03:22:34.494Z,7.87
2022-12-11T03:25:16.454Z,8.60
2022-12-11T03:27:59.058Z,8.80
2022-12-11T03:30:30.729Z,8.47
2022-12-11T03:33:05.096Z,9.07
2022-12-11T03:35:39.357Z,9.43
2022-12-11T03:38:41.971Z,8.83
2022-12-11T03:41:14.575Z,9.27
2022-12-11T03:43:44.663Z,10.40
2022-12-11T03:46:15.446Z,8.73
2022-12-11T03:48:46.011Z,9.27
2022-12-11T03:51:16.299Z,8.30
2022-12-11T03:53:45.311Z,8.63
2022-12-11T03:56:18.678Z,11.20
2022-12-11T03:58:47.240Z,10.17
2022-12-11T04:01:16.780Z,8.83
2022-12-11T04:03:46.769Z,8.90
2022-12-11T04:06:19.029Z,8.70
2022-12-11T04:08:48.084Z,11.50
2022-12-11T04:11:36.126Z,8.00
2022-12-11T04:14:27.567Z,9.10
2022-12-11T04:16:54.060Z,8.30
2022-12-11T04:19:41.160Z,9.70
2022-12-11T04:22:31.130Z,9.90
2022-12-11T04:25:06.213Z,8.80
2022-12-11T04:27:48.605Z,8.77
2022-12-11T04:30:22.659Z,9.63
2022-12-11T04:32:53.874Z,8.20
2022-12-11T04:35:24.153Z,8.47
2022-12-11T04:37:54.629Z,7.93
2022-12-11T04:40:28.754Z,7.83
2022-12-11T04:42:58.700Z,9.40
2022-12-11T04:45:29.179Z,10.13
2022-12-11T04:47:59.768Z,8.13
2022-12-11T04:50:29.968Z,9.93
2022-12-11T04:53:00.507Z,9.03
2022-12-11T04:55:30.511Z,11.30
2022-12-11T04:58:05.421Z,8.87
2022-12-11T05:00:35.748Z,8.50
2022-12-11T05:03:06.367Z,8.73
2022-12-11T05:05:36.644Z,8.47
2022-12-11T05:08:07.580Z,7.93
2022-12-11T05:10:38.116Z,8.20
2022-12-11T05:13:07.664Z,9.37
2022-12-11T05:15:40.940Z,10.33
2022-12-11T05:18:10.420Z,8.73
2022-12-11T05:20:39.943Z,11.40
2022-12-11T05:23:09.672Z,8.90
2022-12-11T05:25:39.281Z,10.33
2022-12-11T05:28:08.798Z,9.50
2022-12-11T05:30:38.370Z,12.43
2022-12-11T05:33:08.147Z,10.00
2022-12-11T05:35:37.987Z,11.37
2022-12-11T05:38:07.076Z,10.40
2022-12-11T05:40:36.736Z,11.80
2022-12-11T05:43:09.793Z,12.77
2022-12-11T05:45:39.666Z,10.63
2022-12-11T05:48:08.990Z,9.60
2022-12-11T05:50:38.417Z,9.47
2022-12-11T05:53:09.827Z,11.20
2022-12-11T05:55:40.270Z,9.00
2022-12-11T05:58:09.709Z,9.93
2022-12-11T06:00:41.758Z,12.37
2022-12-11T06:03:09.216Z,10.13
2022-12-11T06:05:39.967Z,10.37
2022-12-11T06:08:08.398Z,11.87
2022-12-11T06:10:47.993Z,13.23
2022-12-11T06:13:14.936Z,11.00
2022-12-11T06:15:41.477Z,10.50
2022-12-11T06:18:10.204Z,9.77
2022-12-11T06:20:40.528Z,9.73
2022-12-11T06:23:10.250Z,9.60
2022-12-11T06:25:39.676Z,10.17
2022-12-11T06:28:09.650Z,11.77
2022-12-11T06:30:39.660Z,13.10
2022-12-11T06:33:08.653Z,13.50
2022-12-11T06:35:41.921Z,11.83
2022-12-11T06:38:14.775Z,13.40
2022-12-11T06:40:44.464Z,15.00
2022-12-11T06:43:13.792Z,13.47
2022-12-11T06:45:43.319Z,10.53
2022-12-11T06:48:13.728Z,13.27
2022-12-11T06:50:43.060Z,18.40
2022-12-11T06:53:15.381Z,11.90
2022-12-11T06:55:49.571Z,10.37
2022-12-11T06:58:19.066Z,13.47
2022-12-11T07:00:48.501Z,14.40
2022-12-11T07:03:18.401Z,16.07
2022-12-11T07:05:47.796Z,14.27
2022-12-11T07:08:17.097Z,13.57
2022-12-11T07:10:46.718Z,17.23
2022-12-11T07:13:20.182Z,15.10
2022-12-11T07:15:50.158Z,14.27
2022-12-11T07:18:20.221Z,19.67
2022-12-11T07:20:49.823Z,14.97
2022-12-11T07:23:19.577Z,18.50
2022-12-11T07:25:48.844Z,16.77
2022-12-11T07:28:18.485Z,17.47
2022-12-11T07:30:49.005Z,19.47
2022-12-11T07:33:18.395Z,17.87
2022-12-11T07:35:48.467Z,18.17
2022-12-11T07:38:17.593Z,16.50
2022-12-11T07:40:51.132Z,19.60
2022-12-11T07:43:20.516Z,21.20
2022-12-11T07:45:50.158Z,16.53
2022-12-11T07:48:19.679Z,21.27
2022-12-11T07:50:49.854Z,18.27
2022-12-11T07:53:19.255Z,18.60
2022-12-11T07:55:48.613Z,23.00
2022-12-11T07:58:18.401Z,20.33
2022-12-11T08:00:48.967Z,23.13
2022-12-11T08:03:17.772Z,20.37
2022-12-11T08:05:49.224Z,15.43
2022-12-11T08:08:24.583Z,15.57
2022-12-11T08:10:54.169Z,17.93
2022-12-11T08:13:23.832Z,20.93
2022-12-11T08:15:54.881Z,20.20
2022-12-11T08:18:23.519Z,27.90
2022-12-11T08:20:52.750Z,21.93
2022-12-11T08:23:22.729Z,17.37
2022-12-11T08:25:56.380Z,19.47
2022-12-11T08:28:27.307Z,21.00
2022-12-11T08:30:56.284Z,18.83
2022-12-11T08:33:25.525Z,19.37
2022-12-11T08:35:54.617Z,16.77
2022-12-11T08:38:25.718Z,18.00
2022-12-11T08:40:54.413Z,17.43
2022-12-11T08:43:24.312Z,19.10
2022-12-11T08:45:54.333Z,19.73
2022-12-11T08:48:23.942Z,20.33
2022-12-11T08:50:52.896Z,18.50
2022-12-11T08:53:28.093Z,18.97
2022-12-11T08:56:00.987Z,24.33
2022-12-11T08:58:27.175Z,19.77
2022-12-11T09:00:54.774Z,21.03
2022-12-11T09:03:25.164Z,21.10
2022-12-11T09:05:54.447Z,19.60
2022-12-11T09:08:24.930Z,20.73
2022-12-11T09:10:53.675Z,22.17
2022-12-11T09:13:23.256Z,21.47
2022-12-11T09:15:52.939Z,21.10
2022-12-11T09:18:22.821Z,22.00
2022-12-11T09:21:06.703Z,21.40
2022-12-11T09:23:32.895Z,20.80
2022-12-11T09:25:59.132Z,23.70
2022-12-11T09:28:26.075Z,19.20
2022-12-11T09:30:56.746Z,20.53
2022-12-11T09:33:27.217Z,25.53
2022-12-11T09:36:00.748Z,25.40
2022-12-11T09:38:35.875Z,23.17
2022-12-11T09:41:20.721Z,24.43
2022-12-11T09:43:49.502Z,21.87
2022-12-11T09:46:22.485Z,23.40
2022-12-11T09:48:53.201Z,22.83
2022-12-11T09:51:43.245Z,22.10
2022-12-11T09:54:14.024Z,22.37
2022-12-11T09:56:48.145Z,26.17
2022-12-11T10:00:04.435Z,25.47
2022-12-11T10:02:44.354Z,23.90
2022-12-11T10:05:25.811Z,25.93
2022-12-11T10:08:02.110Z,21.80
2022-12-11T10:10:43.141Z,24.87
2022-12-11T10:13:29.662Z,21.87
2022-12-11T10:16:13.115Z,23.53
2022-12-11T10:18:43.465Z,24.17
2022-12-11T10:21:15.936Z,25.00
2022-12-11T10:23:56.288Z,24.20
2022-12-11T10:26:23.029Z,21.30
2022-12-11T10:28:49.115Z,22.17
2022-12-11T10:31:45.256Z,25.07
2022-12-11T10:34:13.296Z,25.17
2022-12-11T10:36:40.904Z,25.10
2022-12-11T10:39:19.857Z,24.17
2022-12-11T10:41:51.486Z,26.10
2022-12-11T10:44:21.909Z,23.80
2022-12-11T10:47:15.076Z,25.53
2022-12-11T10:49:57.658Z,22.90
2022-12-11T10:52:37.354Z,24.93
2022-12-11T10:55:20.727Z,22.90
2022-12-11T10:58:02.284Z,25.10
2022-12-11T11:00:38.070Z,24.17
2022-12-11T11:03:25.067Z,24.60
2022-12-11T11:06:14.385Z,26.27
2022-12-11T11:08:49.732Z,27.70
2022-12-11T11:11:26.419Z,27.17
2022-12-11T11:14:19.617Z,25.07
2022-12-11T11:16:52.313Z,25.53
2022-12-11T11:19:34.682Z,27.90
2022-12-11T11:22:11.184Z,27.90
2022-12-11T11:24:44.740Z,26.70
2022-12-11T11:27:44.961Z,27.60
2022-12-11T11:30:24.035Z,27.20
2022-12-11T11:33:01.945Z,23.10
2022-12-11T11:35:32.271Z,26.47
2022-12-11T11:38:17.255Z,26.67
2022-12-11T11:41:21.384Z,32.37
2022-12-11T11:43:52.664Z,28.90
2022-12-11T11:46:35.751Z,29.53
2022-12-11T11:49:24.180Z,24.50
2022-12-11T11:52:03.243Z,30.40
2022-12-11T11:54:41.608Z,29.00
2022-12-11T11:57:20.082Z,28.40
2022-12-11T12:00:08.920Z,30.27
2022-12-11T12:02:46.238Z,29.00
2022-12-11T12:05:23.182Z,30.27
2022-12-11T12:08:13.788Z,38.37
2022-12-11T12:10:56.308Z,31.07
2022-12-11T12:13:49.079Z,29.93
2022-12-11T12:16:53.647Z,32.40
2022-12-11T12:19:49.414Z,30.70
2022-12-11T12:22:27.351Z,31.47
2022-12-11T12:25:02.898Z,25.70
2022-12-11T12:27:51.960Z,35.03
2022-12-11T12:30:23.858Z,33.53
2022-12-11T12:33:07.421Z,26.83
2022-12-11T12:36:06.845Z,33.97
2022-12-11T12:38:49.654Z,28.53
2022-12-11T12:41:23.109Z,27.77
2022-12-11T12:44:02.344Z,32.50
2022-12-11T12:47:03.148Z,32.63
2022-12-11T12:49:40.077Z,27.40
2022-12-11T12:52:31.044Z,32.30
2022-12-11T12:55:15.736Z,29.57
2022-12-11T12:57:46.368Z,28.00
2022-12-11T13:00:13.733Z,30.50
2022-12-11T13:02:49.921Z,28.77
2022-12-11T13:05:27.770Z,33.60
2022-12-11T13:07:57.077Z,31.13
2022-12-11T13:10:27.268Z,35.13
2022-12-11T13:12:53.607Z,32.00
2022-12-11T13:15:32.919Z,34.03
2022-12-11T13:18:00.273Z,31.50
2022-12-11T13:20:28.648Z,34.07
2022-12-11T13:23:05.095Z,36.03
2022-12-11T13:25:33.622Z,31.90
2022-12-11T13:28:07.002Z,33.80
2022-12-11T13:30:34.047Z,32.70
2022-12-11T13:33:07.181Z,29.80
2022-12-11T13:35:34.697Z,33.93
2022-12-11T13:38:16.147Z,35.87
2022-12-11T13:40:56.318Z,33.47
2022-12-11T13:43:26.824Z,34.40
2022-12-11T13:45:55.524Z,34.20
2022-12-11T13:48:36.248Z,31.93
2022-12-11T13:51:06.754Z,30.57
2022-12-11T13:53:32.947Z,31.73
2022-12-11T13:56:07.353Z,33.53
2022-12-11T13:58:38.832Z,35.17
2022-12-11T14:01:29.659Z,34.90
2022-12-11T14:04:13.323Z,35.87
2022-12-11T14:06:43.692Z,33.13
2022-12-11T14:09:18.643Z,47.80
2022-12-11T14:11:53.499Z,43.00
2022-12-11T14:14:38.450Z,35.37
2022-12-11T14:17:19.766Z,32.87
2022-12-11T14:19:50.797Z,32.73
2022-12-11T14:22:25.025Z,37.43
2022-12-11T14:25:02.852Z,35.27
2022-12-11T14:27:30.732Z,35.33
2022-12-11T14:30:11.307Z,36.27
2022-12-11T14:32:42.160Z,32.30
2022-12-11T14:35:23.274Z,41.67
2022-12-11T14:37:53.823Z,35.67
2022-12-11T14:40:24.208Z,31.03
2022-12-11T14:42:58.576Z,37.23
2022-12-11T14:45:33.645Z,37.63
2022-12-11T14:48:07.933Z,36.57
2022-12-11T14:50:41.599Z,34.47
2022-12-11T14:53:18.282Z,32.37
2022-12-11T14:55:49.845Z,37.40
2022-12-11T14:58:21.338Z,38.60
2022-12-11T15:01:21.666Z,33.97
2022-12-11T15:04:01.849Z,37.40
2022-12-11T15:06:34.948Z,34.30
2022-12-11T15:09:36.499Z,37.23
2022-12-11T15:12:13.965Z,37.07
2022-12-11T15:14:55.480Z,41.00
2022-12-11T15:17:22.613Z,38.73
2022-12-11T15:19:54.684Z,35.50
2022-12-11T15:22:25.778Z,36.03
2022-12-11T15:24:53.735Z,39.17
2022-12-11T15:27:29.225Z,38.30
2022-12-11T15:29:56.103Z,38.80
2022-12-11T15:32:24.013Z,35.67
2022-12-11T15:34:58.217Z,36.43
2022-12-11T15:37:35.827Z,36.60
2022-12-11T15:40:04.077Z,34.13
2022-12-11T15:42:40.768Z,36.47
2022-12-11T15:45:08.982Z,32.87
2022-12-11T15:47:35.187Z,33.20
2022-12-11T15:50:36.669Z,37.27
2022-12-11T15:53:07.023Z,35.33
2022-12-11T15:55:34.318Z,39.73
2022-12-11T15:58:07.396Z,35.40
2022-12-11T16:00:37.869Z,38.17
2022-12-11T16:03:11.361Z,35.90
2022-12-11T16:05:48.501Z,40.50
2022-12-11T16:08:21.082Z,38.37
2022-12-11T16:10:53.672Z,39.40
2022-12-11T16:13:27.577Z,34.90
2022-12-11T16:15:58.083Z,41.00
2022-12-11T16:18:28.348Z,33.90
2022-12-11T16:21:03.706Z,40.50
2022-12-11T16:23:33.934Z,39.87
2022-12-11T16:26:08.946Z,48.57
2022-12-11T16:28:39.432Z,41.40
2022-12-11T16:31:11.155Z,43.40
2022-12-11T16:33:41.233Z,38.83
2022-12-11T16:36:15.916Z,43.43
2022-12-11T16:38:53.210Z,40.13
2022-12-11T16:41:24.178Z,43.77
2022-12-11T16:43:54.500Z,37.17
2022-12-11T16:46:29.123Z,44.53
2022-12-11T16:48:59.559Z,43.33
2022-12-11T16:51:29.662Z,41.70
2022-12-11T16:53:59.845Z,39.23
2022-12-11T16:56:30.179Z,42.50
2022-12-11T16:59:00.834Z,39.37
2022-12-11T17:01:31.298Z,49.83
2022-12-11T17:04:05.098Z,38.70
2022-12-11T17:06:34.588Z,45.73
2022-12-11T17:09:05.006Z,38.80
2022-12-11T17:11:35.004Z,42.00
2022-12-11T17:14:05.623Z,46.00
2022-12-11T17:16:35.737Z,43.13
2022-12-11T17:19:06.664Z,42.40
2022-12-11T17:21:39.835Z,42.40
2022-12-11T17:24:10.043Z,40.03
2022-12-11T17:26:40.770Z,41.30
2022-12-11T17:29:12.009Z,41.43
2022-12-11T17:31:41.506Z,40.30
2022-12-11T17:34:11.808Z,43.83
2022-12-11T17:36:37.904Z,42.93
2022-12-11T17:39:04.038Z,49.20
2022-12-11T17:41:30.071Z,44.73
2022-12-11T17:43:56.119Z,40.87
2022-12-11T17:46:22.264Z,47.97
2022-12-11T17:48:48.557Z,45.23
2022-12-11T17:51:23.914Z,42.30
2022-12-11T17:53:51.423Z,42.90
2022-12-11T17:56:17.592Z,44.70
2022-12-11T17:58:43.882Z,41.67
2022-12-11T18:01:11.756Z,41.43
2022-12-11T18:03:38.469Z,41.77
2022-12-11T18:06:10.918Z,43.10
2022-12-11T18:08:37.649Z,40.37
2022-12-11T18:11:05.933Z,41.80
2022-12-11T18:13:32.247Z,45.30
2022-12-11T18:16:03.140Z,41.77
2022-12-11T18:18:29.619Z,42.80
2022-12-11T18:20:55.893Z,51.47
2022-12-11T18:23:22.160Z,51.20
2022-12-11T18:25:48.318Z,50.93
2022-12-11T18:28:14.508Z,47.13
2022-12-11T18:30:40.615Z,41.90
2022-12-11T18:33:06.636Z,42.07
2022-12-11T18:35:32.723Z,44.70
2022-12-11T18:37:58.786Z,43.00
2022-12-11T18:40:24.822Z,42.87
2022-12-11T18:42:50.889Z,45.83
2022-12-11T18:45:17.065Z,39.33
2022-12-11T18:47:43.144Z,38.50
2022-12-11T18:50:09.268Z,41.07
2022-12-11T18:52:35.302Z,47.00
2022-12-11T18:55:01.425Z,41.50
2022-12-11T18:57:27.470Z,42.67
2022-12-11T18:59:53.538Z,43.97
2022-12-11T19:02:20.573Z,45.30
2022-12-11T19:04:46.789Z,42.27
2022-12-11T19:07:12.881Z,39.93
2022-12-11T19:09:42.414Z,47.80
2022-12-11T19:12:10.972Z,50.07
2022-12-11T19:14:37.031Z,42.13
2022-12-11T19:17:03.224Z,40.30
2022-12-11T19:19:29.312Z,43.57
2022-12-11T19:21:55.366Z,43.07
2022-12-11T19:24:22.407Z,37.67
2022-12-11T19:26:48.618Z,39.33
2022-12-11T19:29:21.687Z,40.00
2022-12-11T19:31:47.953Z,38.50
2022-12-11T19:34:14.857Z,36.87
2022-12-11T19:36:41.028Z,40.10
2022-12-11T19:39:12.585Z,36.20
2022-12-11T19:41:40.180Z,44.97
2022-12-11T19:44:06.836Z,41.77
2022-12-11T19:46:33.393Z,50.50
2022-12-11T19:49:00.171Z,38.67
2022-12-11T19:51:29.381Z,44.00
2022-12-11T19:53:55.944Z,42.00
2022-12-11T19:56:22.323Z,48.57
2022-12-11T19:58:49.164Z,37.83
2022-12-11T20:01:24.091Z,32.57
2022-12-11T20:03:54.247Z,42.17
2022-12-11T20:06:20.947Z,33.87
2022-12-11T20:08:47.124Z,37.37
2022-12-11T20:11:17.970Z,42.77
2022-12-11T20:13:46.329Z,37.03
2022-12-11T20:16:12.896Z,35.43
2022-12-11T20:18:39.130Z,36.57
2022-12-11T20:21:07.633Z,31.73
2022-12-11T20:23:34.756Z,38.50
2022-12-11T20:26:15.614Z,39.57
2022-12-11T20:28:41.974Z,35.43
2022-12-11T20:31:19.565Z,31.60
2022-12-11T20:33:47.966Z,38.17
2022-12-11T20:36:15.735Z,36.70
2022-12-11T20:38:42.664Z,32.30
2022-12-11T20:41:10.717Z,35.43
2022-12-11T20:43:37.649Z,28.70
2022-12-11T20:46:10.851Z,39.03
2022-12-11T20:48:37.007Z,34.33
2022-12-11T20:51:05.800Z,32.17
2022-12-11T20:53:31.889Z,28.10
2022-12-11T20:55:57.939Z,30.17
2022-12-11T20:58:24.008Z,32.10
2022-12-11T21:00:50.285Z,35.37
2022-12-11T21:03:16.379Z,35.87
2022-12-11T21:05:44.015Z,33.83
2022-12-11T21:08:10.957Z,35.73
2022-12-11T21:10:44.021Z,32.33
2022-12-11T21:13:10.155Z,34.43
2022-12-11T21:15:37.415Z,33.63
2022-12-11T21:18:03.878Z,31.93
2022-12-11T21:20:30.089Z,30.97
2022-12-11T21:22:56.861Z,28.10
2022-12-11T21:25:23.969Z,30.27
2022-12-11T21:27:50.061Z,27.00
2022-12-11T21:30:16.502Z,28.30
2022-12-11T21:32:42.847Z,29.33
2022-12-11T21:35:09.543Z,32.40
2022-12-11T21:37:35.784Z,24.23
2022-12-11T21:40:01.976Z,23.30
2022-12-11T21:42:28.136Z,27.27
2022-12-11T21:45:44.329Z,19.50
2022-12-11T21:47:40.208Z,22.53
2022-12-11T21:50:06.406Z,20.53
2022-12-11T21:52:32.512Z,19.00
2022-12-11T21:54:58.568Z,16.70
2022-12-11T21:57:26.875Z,14.00
2022-12-11T21:59:53.065Z,16.73
2022-12-11T22:02:19.257Z,17.00
2022-12-11T22:04:46.749Z,18.37
2022-12-11T22:07:14.254Z,18.73
2022-12-11T22:09:40.468Z,16.53
2022-12-11T22:12:06.813Z,16.20
2022-12-11T22:14:33.931Z,14.30
2022-12-11T22:17:00.079Z,15.37
2022-12-11T22:19:32.165Z,16.07
2022-12-11T22:21:58.707Z,18.47
2022-12-11T22:24:24.721Z,19.90
2022-12-11T22:26:50.805Z,16.83
2022-12-11T22:29:16.839Z,18.63
2022-12-11T22:31:42.872Z,21.97
2022-12-11T22:34:08.973Z,19.43
2022-12-11T22:36:34.999Z,21.93
2022-12-11T22:39:01.272Z,22.20
2022-12-11T22:41:30.241Z,18.70
2022-12-11T22:43:56.935Z,24.50
2022-12-11T22:46:27.089Z,21.93
2022-12-11T22:48:53.824Z,24.07
2022-12-11T22:51:20.499Z,17.50
2022-12-11T22:53:46.656Z,21.57
2022-12-11T22:56:13.521Z,18.40
2022-12-11T22:58:40.161Z,20.17
2022-12-11T23:01:12.217Z,23.60
2022-12-11T23:03:38.423Z,19.03
2022-12-11T23:06:08.837Z,17.57
2022-12-11T23:08:35.385Z,16.57
2022-12-11T23:11:02.016Z,17.30
2022-12-11T23:13:28.062Z,17.57
2022-12-11T23:15:54.100Z,17.93
2022-12-11T23:18:20.146Z,14.67
2022-12-11T23:20:46.247Z,15.20
2022-12-11T23:23:12.278Z,18.87
2022-12-11T23:25:38.484Z,17.60
2022-12-11T23:28:04.631Z,14.93
2022-12-11T23:30:30.699Z,22.20
2022-12-11T23:32:56.779Z,20.47
2022-12-11T23:35:22.894Z,18.67
2022-12-11T23:37:48.940Z,17.77
2022-12-11T23:40:14.974Z,17.40
2022-12-11T23:42:41.064Z,15.83
2022-12-11T23:45:07.400Z,16.60
2022-12-11T23:47:33.556Z,18.60
2022-12-11T23:49:59.572Z,18.33
2022-12-11T23:52:25.934Z,21.63
2022-12-11T23:54:51.975Z,21.73
2022-12-11T23:57:18.028Z,22.13
2022-12-11T23:59:44.033Z,20.70
